This is the latest recevied weather packets stored in our database for station/object YD6HRD-13. If no packets are shown the sender has not sent any weather packets the latest 10 day(s).
| Time | Temp. | Humidity | Pressure | Rain* | Wind** | Luminosity | Snow |
|---|---|---|---|---|---|---|---|
| 1788152271 | 103° F | 60% | 765.7 mmHg | - | - | - | - |
| 1788151971 | 103° F | 60% | 765.7 mmHg | - | - | - | - |
| 1788151671 | 103° F | 60% | 765.7 mmHg | - | - | - | - |
| 1788150771 | 103° F | 59% | 765.9 mmHg | - | - | - | - |
| 1788149571 | 103° F | 59% | 766.2 mmHg | - | - | - | - |
| 1788148971 | 103° F | 59% | 766.3 mmHg | - | - | - | - |
| 1788148071 | 93° F | 69% | 766.5 mmHg | - | - | - | - |
| 1788147771 | 102° F | 60% | 766.5 mmHg | - | - | - | - |
| 1788147471 | 103° F | 59% | 766.5 mmHg | - | - | - | - |
| 1788147171 | 97° F | 64% | 766.6 mmHg | - | - | - | - |
| 1788146871 | 95° F | 66% | 766.6 mmHg | - | - | - | - |
| 1788146571 | 101° F | 61% | 766.6 mmHg | - | - | - | - |
| 1788146271 | 100° F | 62% | 766.6 mmHg | - | - | - | - |
| 1788145671 | 101° F | 61% | 766.7 mmHg | - | - | - | - |
| 1788145071 | 100° F | 63% | 766.9 mmHg | - | - | - | - |
| 1788143571 | 98° F | 65% | 767 mmHg | - | - | - | - |
| 1788143271 | 98° F | 65% | 767 mmHg | - | - | - | - |
| 1788142971 | 98° F | 65% | 767 mmHg | - | - | - | - |
| 1788142671 | 98° F | 66% | 767 mmHg | - | - | - | - |
| 1788142371 | 98° F | 66% | 767 mmHg | - | - | - | - |
| 1788142071 | 98° F | 66% | 767 mmHg | - | - | - | - |
| 1788141771 | 97° F | 66% | 766.9 mmHg | - | - | - | - |
| 1788141171 | 97° F | 65% | 767.1 mmHg | - | - | - | - |
| 1788140871 | 97° F | 65% | 767.1 mmHg | - | - | - | - |
| 1788139371 | 96° F | 66% | 766.9 mmHg | - | - | - | - |
* Rain since midnight (hover to see other rain measurements)
** Current wind speed in m/s (hover to see current wind gust speed)